Time;durP1;ratioP1;P1;durP2;ratioP2;P2;SDS_P1;SDS_P2;PMS_P1;PMS_P2;Temp;Humidity;BMP_temperature;BMP_pressure;BME280_temperature;BME280_humidity;BME280_pressure;Samples;Min_cycle;Max_cycle;Signal;HPM_P1;HPM_P2
2021/08/03 00:00:25;;;;;;;21.48;8.13;;;;;;;23.78;49.15;96564.63;5003728;28;20164;-60
2021/08/03 00:02:56;;;;;;;22.48;8.32;;;;;;;24.07;49.26;96598.19;5001640;28;20064;-59
2021/08/03 00:05:27;;;;;;;40.00;16.63;;;;;;;23.93;50.37;96599.56;5003382;28;20061;-62
2021/08/03 00:08:03;;;;;;;27.95;10.75;;;;;;;23.64;50.83;96583.00;5005790;28;20054;-59
2021/08/03 00:10:30;;;;;;;16.33;8.18;;;;;;;23.76;51.32;96601.09;5005606;28;20485;-59
2021/08/03 00:13:00;;;;;;;21.63;8.13;;;;;;;23.26;50.51;96499.78;5007261;28;20062;-59
2021/08/03 00:15:28;;;;;;;27.50;8.00;;;;;;;23.80;50.63;96584.78;5005249;28;20439;-59
2021/08/03 00:17:55;;;;;;;36.13;14.20;;;;;;;23.42;51.20;96556.06;5006559;28;20049;-62
2021/08/03 00:20:24;;;;;;;24.08;7.35;;;;;;;22.99;51.12;96494.00;5007066;28;20440;-60
2021/08/03 00:22:56;;;;;;;24.77;8.07;;;;;;;23.57;51.77;96593.81;5005405;28;20144;-61
2021/08/03 00:25:24;;;;;;;19.15;6.80;;;;;;;23.24;51.67;96555.97;5005424;28;20050;-60
2021/08/03 00:27:52;;;;;;;24.52;7.80;;;;;;;23.50;51.83;96591.28;5006796;28;20053;-61
2021/08/03 00:30:19;;;;;;;19.25;6.53;;;;;;;23.47;52.05;96609.19;5005293;28;20080;-60
2021/08/03 00:32:48;;;;;;;18.45;6.53;;;;;;;23.45;51.92;96603.19;5005677;28;20064;-60
2021/08/03 00:35:14;;;;;;;25.08;8.82;;;;;;;23.51;51.48;96606.97;5005549;28;20053;-60
2021/08/03 00:37:41;;;;;;;24.67;8.43;;;;;;;23.50;51.66;96605.41;5005069;28;20054;-59
2021/08/03 00:40:10;;;;;;;22.63;8.23;;;;;;;23.46;52.09;96601.94;5004904;28;20445;-60
2021/08/03 00:42:36;;;;;;;21.98;8.30;;;;;;;23.37;52.66;96616.03;5004738;28;20058;-59
2021/08/03 00:45:04;;;;;;;22.98;8.50;;;;;;;23.15;53.55;96606.81;5005064;28;20864;-60
2021/08/03 00:47:31;;;;;;;18.90;8.43;;;;;;;22.60;54.15;96551.25;5004836;28;20046;-64
2021/08/03 00:49:58;;;;;;;22.85;8.35;;;;;;;22.36;54.75;96551.72;5004787;28;20086;-60
2021/08/03 00:52:26;;;;;;;29.88;9.57;;;;;;;22.32;55.67;96596.19;5004104;28;20509;-59
2021/08/03 00:54:54;;;;;;;19.83;7.90;;;;;;;21.97;56.10;96563.59;5004953;28;20053;-60
2021/08/03 00:57:21;;;;;;;23.52;9.07;;;;;;;22.09;57.03;96650.25;5004790;28;20530;-59
2021/08/03 00:59:48;;;;;;;30.23;9.38;;;;;;;21.92;57.56;96623.44;5004750;28;20053;-61
2021/08/03 01:02:15;;;;;;;23.52;9.02;;;;;;;21.54;57.61;96573.94;5004423;28;20046;-61
2021/08/03 01:04:42;;;;;;;27.65;8.85;;;;;;;21.73;57.56;96593.44;5006244;28;20186;-61
2021/08/03 01:07:18;;;;;;;23.67;8.85;;;;;;;21.76;57.40;96598.19;5004301;28;20611;-59
2021/08/03 01:09:47;;;;;;;26.35;7.68;;;;;;;22.09;57.45;96643.78;5006436;28;20460;-60
2021/08/03 01:12:30;;;;;;;26.85;8.75;;;;;;;22.10;56.09;96634.88;5005561;28;20079;-59
2021/08/03 01:15:05;;;;;;;24.63;8.98;;;;;;;22.15;57.08;96634.31;5006436;28;20436;-60
2021/08/03 01:17:40;;;;;;;20.25;7.75;;;;;;;22.11;58.28;96638.50;5005584;28;20058;-60
2021/08/03 01:20:07;;;;;;;22.02;9.10;;;;;;;21.98;58.57;96638.53;5004411;28;20131;-62
2021/08/03 01:23:01;;;;;;;20.83;8.73;;;;;;;21.93;58.86;96647.56;5004282;28;20060;-60
2021/08/03 01:25:40;;;;;;;18.25;6.72;;;;;;;21.91;59.16;96638.75;5006035;28;20065;-60
2021/08/03 01:28:26;;;;;;;22.10;8.70;;;;;;;21.95;59.03;96628.16;5004058;28;20065;-60
2021/08/03 01:30:59;;;;;;;24.83;8.05;;;;;;;21.94;59.06;96628.63;5004445;28;20064;-60
2021/08/03 01:33:30;;;;;;;20.70;7.93;;;;;;;21.99;58.62;96640.09;5004596;28;20069;-59
2021/08/03 01:35:59;;;;;;;20.35;8.52;;;;;;;21.77;58.15;96599.75;5005696;28;20050;-59
2021/08/03 01:38:28;;;;;;;18.33;8.55;;;;;;;22.08;58.00;96654.28;5004337;28;20061;-59
2021/08/03 01:41:02;;;;;;;20.48;7.97;;;;;;;22.11;57.85;96642.09;5003570;28;20054;-60
2021/08/03 01:43:30;;;;;;;20.08;7.65;;;;;;;21.79;58.43;96605.75;5003169;28;20520;-59
2021/08/03 01:45:58;;;;;;;21.15;7.30;;;;;;;21.97;58.72;96636.94;5005177;28;20061;-59
2021/08/03 01:48:26;;;;;;;24.23;8.70;;;;;;;21.58;58.73;96586.69;5003904;28;20068;-59
2021/08/03 01:50:55;;;;;;;23.23;9.77;;;;;;;21.16;61.72;96650.06;5003936;28;20064;-60
2021/08/03 01:53:24;;;;;;;26.10;8.90;;;;;;;21.14;61.93;96658.16;5004024;28;20140;-61
2021/08/03 01:55:54;;;;;;;24.58;10.48;;;;;;;21.06;62.09;96651.16;5003685;28;20053;-62
2021/08/03 01:58:22;;;;;;;23.83;10.55;;;;;;;20.79;62.38;96619.75;5003577;28;20144;-59
2021/08/03 02:00:51;;;;;;;23.35;10.63;;;;;;;20.88;62.58;96668.56;5004825;28;20061;-59
2021/08/03 02:03:23;;;;;;;32.35;10.45;;;;;;;20.85;62.81;96668.66;5003300;28;20062;-60
2021/08/03 02:05:52;;;;;;;26.95;10.48;;;;;;;20.96;62.85;96677.59;5004809;28;20062;-60
2021/08/03 02:08:21;;;;;;;26.15;9.88;;;;;;;21.00;62.57;96678.31;5005369;28;20509;-59
2021/08/03 02:10:48;;;;;;;27.05;11.02;;;;;;;21.11;62.40;96681.59;5003699;28;20045;-59
2021/08/03 02:13:17;;;;;;;26.88;10.05;;;;;;;21.18;62.50;96675.75;5003313;28;20062;-63
2021/08/03 02:15:44;;;;;;;29.50;11.23;;;;;;;21.27;62.07;96672.25;5002686;28;20057;-59
2021/08/03 02:18:11;;;;;;;21.65;9.32;;;;;;;21.40;61.52;96682.31;5003461;28;20081;-59
2021/08/03 02:20:38;;;;;;;24.70;9.95;;;;;;;21.02;61.42;96605.44;5004773;28;20128;-59
2021/08/03 02:23:05;;;;;;;25.98;8.63;;;;;;;21.38;60.90;96659.44;5003302;28;20057;-59
2021/08/03 02:25:32;;;;;;;25.35;8.75;;;;;;;20.85;60.70;96575.72;5002904;28;20076;-59
2021/08/03 02:27:58;;;;;;;18.77;8.43;;;;;;;21.51;60.36;96671.50;5004864;28;20081;-61
2021/08/03 02:30:26;;;;;;;23.20;8.27;;;;;;;21.49;60.56;96673.97;5002334;28;20503;-59
2021/08/03 02:33:08;;;;;;;14.70;7.28;;;;;;;21.51;60.26;96674.31;5004338;28;20054;-59
2021/08/03 02:35:47;;;;;;;20.48;7.55;;;;;;;21.14;59.88;96624.34;5004309;28;20057;-59
2021/08/03 02:38:19;;;;;;;14.95;7.28;;;;;;;21.46;59.90;96680.50;5004167;28;20057;-60
2021/08/03 02:40:46;;;;;;;25.80;7.30;;;;;;;20.73;59.84;96596.22;5002448;28;20058;-60
2021/08/03 02:43:15;;;;;;;22.10;6.95;;;;;;;21.26;60.25;96694.00;5003260;28;20795;-59
2021/08/03 02:45:43;;;;;;;32.85;9.43;;;;;;;21.04;60.52;96669.75;5004065;28;20046;-59
2021/08/03 02:48:13;;;;;;;16.10;8.55;;;;;;;21.32;60.36;96697.06;5003128;28;20060;-60
2021/08/03 02:50:42;;;;;;;24.05;7.75;;;;;;;21.04;60.78;96664.91;5002354;28;20081;-62
2021/08/03 02:53:24;;;;;;;24.17;9.43;;;;;;;21.10;62.07;96713.84;5004046;28;20064;-60
2021/08/03 02:55:57;;;;;;;21.38;8.27;;;;;;;20.38;62.60;96622.56;5002579;28;20149;-62
2021/08/03 02:58:34;;;;;;;27.17;8.80;;;;;;;20.92;62.52;96716.31;5002817;28;20533;-60
2021/08/03 03:01:03;;;;;;;20.52;8.90;;;;;;;20.99;61.78;96724.63;5003050;28;20058;-60
2021/08/03 03:03:34;;;;;;;29.08;9.23;;;;;;;20.92;62.38;96730.41;5003721;28;20057;-61
2021/08/03 03:06:04;;;;;;;21.85;8.93;;;;;;;20.88;61.93;96718.47;5002055;28;20559;-60
2021/08/03 03:08:33;;;;;;;26.77;8.68;;;;;;;20.41;61.55;96638.56;5002509;28;20065;-60
2021/08/03 03:11:03;;;;;;;19.08;7.22;;;;;;;20.89;61.73;96725.66;5003643;28;20447;-59
2021/08/03 03:13:40;;;;;;;21.98;8.40;;;;;;;20.74;62.16;96730.09;5002407;28;20069;-60
2021/08/03 03:16:08;;;;;;;19.33;7.75;;;;;;;19.92;62.66;96674.41;5002312;28;20077;-60
2021/08/03 03:18:35;;;;;;;26.10;8.02;;;;;;;20.58;62.91;96716.09;5004480;28;21205;-61
2021/08/03 03:21:02;;;;;;;21.95;7.45;;;;;;;20.42;62.71;96702.06;5003874;28;20065;-59
2021/08/03 03:23:35;;;;;;;21.33;8.10;;;;;;;20.50;62.88;96728.78;5003505;28;20057;-58
2021/08/03 03:26:04;;;;;;;25.13;7.32;;;;;;;20.62;62.75;96734.47;5003358;28;20115;-62
2021/08/03 03:28:33;;;;;;;16.02;6.95;;;;;;;20.14;62.78;96663.44;5002204;28;20124;-60
2021/08/03 03:31:01;;;;;;;25.48;7.78;;;;;;;20.80;61.98;96734.75;5003373;28;20451;-61
2021/08/03 03:33:30;;;;;;;23.80;7.50;;;;;;;20.92;61.81;96730.41;5001727;28;20057;-60
2021/08/03 03:35:59;;;;;;;21.67;7.90;;;;;;;20.89;61.56;96722.84;5001811;28;20045;-60
2021/08/03 03:38:29;;;;;;;23.77;8.63;;;;;;;20.56;61.03;96657.44;5003238;28;20526;-62
2021/08/03 03:40:57;;;;;;;21.00;6.93;;;;;;;21.09;60.38;96729.13;5004461;28;20054;-59
2021/08/03 03:43:26;;;;;;;15.02;7.10;;;;;;;21.27;60.28;96757.59;5005958;28;20164;-62
2021/08/03 03:46:05;;;;;;;21.60;7.47;;;;;;;21.31;60.26;96751.84;5005724;28;20077;-59
2021/08/03 03:48:38;;;;;;;21.35;8.10;;;;;;;20.23;60.25;96576.41;5005807;28;20436;-60
2021/08/03 03:51:08;;;;;;;16.33;7.63;;;;;;;21.16;60.50;96725.31;5005661;28;20049;-59
2021/08/03 03:53:57;;;;;;;26.52;9.80;;;;;;;20.86;60.80;96685.13;5007247;28;20065;-61
2021/08/03 03:56:29;;;;;;;32.60;12.82;;;;;;;20.73;63.27;96722.91;5007496;28;20537;-59
2021/08/03 03:58:59;;;;;;;19.77;8.85;;;;;;;21.09;62.96;96767.78;5006031;28;20497;-60
2021/08/03 04:01:27;;;;;;;21.92;8.50;;;;;;;20.03;61.78;96584.16;5005819;28;20050;-60
2021/08/03 04:04:00;;;;;;;28.92;8.30;;;;;;;20.49;61.85;96668.88;5005666;28;20142;-63
2021/08/03 04:06:27;;;;;;;19.23;9.13;;;;;;;21.01;62.19;96733.38;5005640;28;20519;-59
2021/08/03 04:08:54;;;;;;;27.00;8.95;;;;;;;20.63;65.46;96775.44;5006914;28;20832;-59
2021/08/03 04:11:21;;;;;;;24.05;9.45;;;;;;;20.78;65.05;96781.50;5006783;28;20049;-58
2021/08/03 04:13:50;;;;;;;26.00;8.95;;;;;;;21.02;64.05;96780.81;5005075;28;20477;-60
2021/08/03 04:16:18;;;;;;;16.42;8.40;;;;;;;20.51;65.24;96772.56;5005433;28;20053;-59
2021/08/03 04:18:45;;;;;;;28.73;10.25;;;;;;;20.68;65.63;96771.28;5006141;28;20053;-61
2021/08/03 04:21:12;;;;;;;25.15;9.27;;;;;;;20.95;64.25;96783.03;5007172;28;20091;-59
2021/08/03 04:23:39;;;;;;;30.70;9.68;;;;;;;21.09;64.12;96768.56;5005351;28;20079;-59
2021/08/03 04:26:06;;;;;;;28.42;10.77;;;;;;;21.24;62.60;96775.38;5006649;28;20056;-59
2021/08/03 04:28:33;;;;;;;25.90;10.35;;;;;;;21.05;61.60;96728.47;5006821;28;20057;-61
2021/08/03 04:31:00;;;;;;;25.00;9.20;;;;;;;21.36;60.38;96771.81;5004797;28;20053;-59
2021/08/03 04:33:27;;;;;;;26.33;9.15;;;;;;;21.82;59.27;96782.50;5006511;28;20133;-58
2021/08/03 04:35:54;;;;;;;29.13;10.88;;;;;;;21.14;57.97;96680.69;5006446;28;20133;-58
2021/08/03 04:38:21;;;;;;;27.58;10.05;;;;;;;22.00;57.17;96791.19;5005202;28;20064;-58
2021/08/03 04:40:48;;;;;;;27.02;9.75;;;;;;;21.90;56.46;96715.38;5004424;28;20056;-59
2021/08/03 04:43:14;;;;;;;22.40;9.57;;;;;;;22.48;56.25;96773.88;5006332;28;20060;-59
2021/08/03 04:45:41;;;;;;;25.45;8.60;;;;;;;22.61;57.14;96771.03;5005616;28;20080;-60
2021/08/03 04:48:08;;;;;;;23.27;8.52;;;;;;;21.10;57.67;96558.09;5002632;28;20064;-61
2021/08/03 04:50:35;;;;;;;26.05;7.68;;;;;;;21.38;57.92;96557.97;4989265;28;20058;-61
2021/08/03 04:53:02;;;;;;;24.90;7.95;;;;;;;23.11;57.68;96787.03;4985589;28;20141;-61
2021/08/03 04:55:28;;;;;;;21.02;8.43;;;;;;;22.82;57.22;96719.47;4985518;28;20054;-63
2021/08/03 04:57:55;;;;;;;24.85;8.50;;;;;;;23.40;57.13;96776.25;4986597;28;20046;-59
2021/08/03 05:00:22;;;;;;;22.63;8.25;;;;;;;23.47;57.19;96750.56;4984508;28;20058;-60
2021/08/03 05:02:48;;;;;;;19.98;8.77;;;;;;;23.85;57.02;96782.19;4984819;28;20061;-60
2021/08/03 05:05:16;;;;;;;23.15;10.13;;;;;;;24.02;56.68;96785.59;4986289;28;20062;-59
2021/08/03 05:08:04;;;;;;;26.05;11.90;;;;;;;24.12;57.22;96775.91;4986112;28;20145;-59
2021/08/03 05:10:31;;;;;;;25.55;12.68;;;;;;;23.36;60.25;96714.19;4986134;28;20085;-59
2021/08/03 05:12:58;;;;;;;23.27;11.55;;;;;;;24.14;59.55;96785.50;4984505;28;20055;-63
2021/08/03 05:15:25;;;;;;;19.50;9.93;;;;;;;24.35;57.75;96755.50;4984480;28;20098;-62
2021/08/03 05:17:52;;;;;;;26.48;9.00;;;;;;;24.61;57.74;96785.94;4986050;28;20149;-60
2021/08/03 05:20:19;;;;;;;34.22;10.52;;;;;;;24.79;56.52;96790.88;4984288;28;20092;-61
2021/08/03 05:22:47;;;;;;;23.33;10.18;;;;;;;24.95;56.39;96794.22;4985810;28;20152;-59
2021/08/03 05:25:14;;;;;;;33.58;10.88;;;;;;;24.62;55.97;96753.53;4985457;28;20062;-62
2021/08/03 05:27:41;;;;;;;28.35;10.48;;;;;;;25.13;55.40;96794.22;4984321;28;20528;-60
2021/08/03 05:30:09;;;;;;;25.67;8.63;;;;;;;24.73;54.48;96730.44;4984450;28;20068;-60
2021/08/03 05:32:36;;;;;;;26.25;10.05;;;;;;;25.29;54.28;96795.97;4992564;28;20459;-61
2021/08/03 05:35:04;;;;;;;33.83;10.63;;;;;;;25.46;53.64;96799.28;5004914;28;20046;-61
2021/08/03 05:37:31;;;;;;;20.83;9.98;;;;;;;24.85;53.19;96673.59;5004806;28;20489;-61
2021/08/03 05:39:59;;;;;;;28.17;9.73;;;;;;;25.59;55.33;96802.75;5005139;28;20056;-62
2021/08/03 05:42:26;;;;;;;21.90;9.02;;;;;;;25.20;56.03;96759.88;5003301;28;20060;-61
2021/08/03 05:44:52;;;;;;;24.92;11.32;;;;;;;25.57;53.93;96788.22;5005279;28;20057;-62
2021/08/03 05:47:19;;;;;;;16.63;8.00;;;;;;;26.04;53.61;96808.31;5003770;28;20460;-61
2021/08/03 05:49:46;;;;;;;24.40;9.35;;;;;;;26.09;53.84;96824.72;5003969;28;20050;-60
2021/08/03 05:52:12;;;;;;;18.10;9.23;;;;;;;26.13;53.58;96825.34;5003760;28;20570;-60
2021/08/03 05:54:39;;;;;;;27.80;8.95;;;;;;;26.24;53.31;96831.31;5005376;28;20489;-60
2021/08/03 05:57:06;;;;;;;22.73;10.40;;;;;;;25.87;52.85;96721.94;5002595;28;20517;-63
2021/08/03 05:59:33;;;;;;;17.92;8.10;;;;;;;26.72;50.95;96813.09;4996665;28;20065;-67
2021/08/03 06:01:59;;;;;;;26.52;9.60;;;;;;;26.97;51.19;96809.78;4988255;28;20050;-62
2021/08/03 06:04:26;;;;;;;17.58;8.38;;;;;;;26.81;50.35;96744.03;4995489;28;20061;-62
2021/08/03 06:06:55;;;;;;;22.90;9.90;;;;;;;27.29;48.79;96797.56;5004571;28;20060;-64
2021/08/03 06:09:25;;;;;;;20.48;9.27;;;;;;;27.68;47.13;96784.06;5003265;28;20056;-64
2021/08/03 06:11:53;;;;;;;22.23;9.63;;;;;;;27.99;47.37;96805.13;5002299;28;20050;-64
2021/08/03 06:14:33;;;;;;;21.48;9.48;;;;;;;27.96;46.69;96756.91;5000448;28;20045;-62
2021/08/03 06:17:07;;;;;;;16.40;9.05;;;;;;;27.93;46.30;96724.47;4987367;28;20061;-67
2021/08/03 06:19:42;;;;;;;;;;;;;;;28.62;45.99;96817.03;4984023;28;20054;-66
2021/08/03 06:22:10;;;;;;;22.27;9.80;;;;;;;28.77;44.82;96810.00;4983227;28;20476;-63
2021/08/03 06:24:39;;;;;;;21.35;9.57;;;;;;;28.84;44.90;96808.81;4986874;28;20085;-65
2021/08/03 06:27:08;;;;;;;20.38;9.93;;;;;;;29.05;45.04;96816.13;4999091;28;20046;-63
2021/08/03 06:29:39;;;;;;;20.13;9.60;;;;;;;29.34;43.12;96813.13;4985483;28;20541;-60
2021/08/03 06:32:07;;;;;;;21.13;10.43;;;;;;;29.59;42.80;96807.47;4989700;28;20046;-61
2021/08/03 06:34:37;;;;;;;18.15;9.45;;;;;;;29.34;42.81;96747.47;4985876;28;20054;-63
2021/08/03 06:37:04;;;;;;;19.02;9.23;;;;;;;29.96;40.18;96819.06;4984224;28;20050;-64
2021/08/03 06:39:31;;;;;;;26.17;9.45;;;;;;;30.08;40.27;96817.84;4992370;28;20046;-63
2021/08/03 06:42:07;;;;;;;23.80;9.35;;;;;;;30.20;40.30;96819.53;5001647;28;20535;-63
2021/08/03 06:44:43;;;;;;;20.88;10.00;;;;;;;29.90;40.00;96769.66;4988572;28;20064;-65
2021/08/03 06:47:11;;;;;;;24.60;9.00;;;;;;;29.76;40.18;96719.16;4990749;28;20049;-63
2021/08/03 06:49:46;;;;;;;26.75;9.95;;;;;;;29.07;40.44;96602.47;5004663;28;20416;-62
2021/08/03 06:52:14;;;;;;;22.13;9.40;;;;;;;30.80;39.06;96822.16;4991196;28;20054;-66
2021/08/03 06:54:46;;;;;;;15.65;8.68;;;;;;;30.93;37.31;96819.66;4983187;28;20062;-60
2021/08/03 06:57:15;;;;;;;24.65;9.02;;;;;;;31.09;36.70;96808.78;4986193;28;20046;-62
2021/08/03 06:59:50;;;;;;;21.52;9.05;;;;;;;31.11;35.54;96795.53;4991993;28;20574;-60
2021/08/03 07:02:28;;;;;;;16.08;8.32;;;;;;;31.09;34.62;96803.06;4982824;28;20050;-64
2021/08/03 07:05:10;;;;;;;15.95;9.02;;;;;;;30.14;34.40;96655.81;4989808;28;20056;-64
2021/08/03 07:07:36;;;;;;;29.55;10.82;;;;;;;30.84;34.26;96738.97;4995096;28;20050;-63
2021/08/03 07:10:06;;;;;;;19.30;9.30;;;;;;;31.68;34.68;96816.09;4995396;28;20423;-61
2021/08/03 07:12:33;;;;;;;17.88;8.70;;;;;;;31.93;33.93;96797.16;4994324;28;20537;-64
2021/08/03 07:15:01;;;;;;;22.58;7.97;;;;;;;31.73;32.63;96748.63;5002747;28;20137;-60
2021/08/03 07:17:30;;;;;;;18.67;8.70;;;;;;;32.23;33.72;96810.47;5003451;28;20521;-67
2021/08/03 07:19:58;;;;;;;29.65;11.10;;;;;;;31.93;33.57;96814.38;5004142;28;20054;-64
2021/08/03 07:22:26;;;;;;;21.08;9.52;;;;;;;32.13;33.96;96808.41;4982922;28;20054;-64
2021/08/03 07:24:54;;;;;;;17.67;8.82;;;;;;;32.01;33.54;96758.88;4983464;28;20062;-67
2021/08/03 07:27:21;;;;;;;17.80;8.38;;;;;;;32.34;32.57;96809.72;4982219;28;20050;-68
2021/08/03 07:29:48;;;;;;;14.90;8.38;;;;;;;32.37;32.79;96808.72;4983910;28;20058;-63
2021/08/03 07:32:16;;;;;;;16.05;8.80;;;;;;;32.16;32.44;96770.09;4982770;28;20050;-63
2021/08/03 07:34:43;;;;;;;13.60;7.90;;;;;;;32.65;32.44;96823.81;4998134;28;20105;-62
2021/08/03 07:37:11;;;;;;;14.10;8.60;;;;;;;32.89;31.56;96803.19;4983576;28;20062;-61
2021/08/03 07:39:39;;;;;;;17.42;8.43;;;;;;;32.17;32.15;96818.31;4981809;28;20146;-61
2021/08/03 07:42:06;;;;;;;13.77;7.82;;;;;;;31.89;32.27;96819.56;4983748;28;20050;-61
2021/08/03 07:44:34;;;;;;;20.80;7.90;;;;;;;31.88;32.93;96809.41;4981314;28;20583;-61
2021/08/03 07:47:04;;;;;;;14.35;9.27;;;;;;;32.41;32.92;96823.56;4983168;28;20057;-67
2021/08/03 07:49:30;;;;;;;16.42;8.35;;;;;;;32.60;32.05;96821.72;4983916;28;20062;-61
2021/08/03 07:51:57;;;;;;;13.32;7.95;;;;;;;32.86;31.25;96816.50;4982601;28;20085;-61
2021/08/03 07:54:24;;;;;;;21.45;8.93;;;;;;;33.01;31.56;96811.25;4983518;28;20069;-61
2021/08/03 07:56:51;;;;;;;18.63;9.32;;;;;;;33.04;31.26;96821.69;4982088;28;20061;-62
2021/08/03 07:59:17;;;;;;;16.48;8.23;;;;;;;32.25;31.99;96784.16;4983804;28;20054;-61
2021/08/03 08:01:44;;;;;;;16.27;9.93;;;;;;;32.94;31.11;96823.28;4983065;28;20050;-62
2021/08/03 08:04:11;;;;;;;22.10;10.35;;;;;;;32.33;31.33;96831.88;4980831;28;20161;-60
2021/08/03 08:06:38;;;;;;;18.23;8.35;;;;;;;31.74;31.76;96738.75;4984032;28;20480;-62
2021/08/03 08:09:15;;;;;;;21.05;8.23;;;;;;;32.34;31.48;96810.47;4982511;28;20049;-63
2021/08/03 08:11:42;;;;;;;13.90;7.93;;;;;;;31.39;31.30;96649.66;4987471;28;20062;-63
2021/08/03 08:14:09;;;;;;;14.32;7.57;;;;;;;32.61;31.22;96800.34;4983681;28;20069;-62
2021/08/03 08:16:36;;;;;;;11.98;7.45;;;;;;;32.88;30.95;96799.53;4992262;28;20059;-61
2021/08/03 08:19:03;;;;;;;14.00;7.53;;;;;;;32.93;30.92;96833.19;4990522;28;20053;-63
2021/08/03 08:21:33;;;;;;;9.65;7.70;;;;;;;32.88;30.03;96825.38;4990516;28;20050;-61
2021/08/03 08:24:04;;;;;;;15.90;8.23;;;;;;;32.94;30.74;96829.03;4982068;28;20112;-66
2021/08/03 08:26:31;;;;;;;11.60;7.40;;;;;;;33.06;31.13;96824.03;4981978;28;20062;-66
2021/08/03 08:28:58;;;;;;;17.80;7.88;;;;;;;33.11;30.93;96843.34;4997530;28;20092;-62
2021/08/03 08:31:25;;;;;;;12.02;8.25;;;;;;;33.41;29.94;96827.88;5006456;28;20204;-68
2021/08/03 08:33:52;;;;;;;13.20;8.13;;;;;;;33.46;29.75;96832.03;4989379;28;20116;-67
2021/08/03 08:36:19;;;;;;;16.42;8.05;;;;;;;33.46;29.57;96772.50;5001889;28;20054;-63
2021/08/03 08:38:46;;;;;;;13.88;7.80;;;;;;;33.91;28.46;96830.53;5001655;28;20058;-62
2021/08/03 08:41:13;;;;;;;15.02;7.50;;;;;;;34.07;28.95;96831.72;5006356;28;20061;-67
2021/08/03 08:43:41;;;;;;;9.90;7.20;;;;;;;34.02;27.88;96829.69;4998519;28;20058;-63
2021/08/03 08:46:12;;;;;;;14.77;7.60;;;;;;;33.78;28.81;96832.41;4987234;28;20115;-64
2021/08/03 08:48:40;;;;;;;13.43;7.32;;;;;;;32.71;29.10;96689.72;4995138;28;20153;-67
2021/08/03 08:51:07;;;;;;;15.07;8.60;;;;;;;33.60;28.64;96828.84;5005340;28;20046;-62
2021/08/03 08:53:34;;;;;;;11.07;7.13;;;;;;;33.07;29.38;96828.47;4998970;28;20092;-68
2021/08/03 08:56:04;;;;;;;13.40;7.50;;;;;;;32.50;29.41;96742.97;5000996;28;20107;-66
2021/08/03 08:58:35;;;;;;;13.05;6.85;;;;;;;33.11;29.19;96809.66;5015430;28;20065;-66
2021/08/03 09:01:03;;;;;;;14.88;8.43;;;;;;;33.55;29.23;96821.03;4990003;28;20529;-61
2021/08/03 09:03:49;;;;;;;20.83;13.40;;;;;;;33.35;29.01;96778.25;4991303;28;20052;-61
2021/08/03 09:06:22;;;;;;;12.65;7.70;;;;;;;32.97;27.93;96701.66;5001644;28;20068;-63
2021/08/03 09:08:50;;;;;;;11.88;7.80;;;;;;;33.72;28.15;96818.84;4992003;28;20563;-68
2021/08/03 09:11:19;;;;;;;13.07;7.45;;;;;;;31.20;28.08;96528.31;4995339;28;20053;-66
2021/08/03 09:13:58;;;;;;;12.35;6.85;;;;;;;33.57;28.11;96823.38;5003926;28;20514;-60
2021/08/03 09:16:28;;;;;;;13.13;6.70;;;;;;;33.63;28.29;96813.41;4999544;28;20062;-60
2021/08/03 09:18:57;;;;;;;20.20;9.73;;;;;;;34.13;28.91;96812.38;5003246;28;20058;-70
2021/08/03 09:21:26;;;;;;;11.07;6.65;;;;;;;34.26;27.51;96780.88;5005879;28;20061;-69
2021/08/03 09:24:01;;;;;;;12.48;6.85;;;;;;;33.63;27.96;96761.69;5000023;28;20046;-58
2021/08/03 09:27:08;;;;;;;9.45;6.50;;;;;;;34.05;28.03;96811.38;5009197;28;20064;-67
2021/08/03 09:29:44;;;;;;;8.50;6.85;;;;;;;33.95;27.54;96761.25;4985407;28;20165;-61
2021/08/03 09:32:11;;;;;;;11.23;7.03;;;;;;;32.61;27.52;96582.31;5004263;28;20153;-62
2021/08/03 09:34:38;;;;;;;8.07;5.95;;;;;;;33.60;27.79;96805.06;5002764;28;20121;-62
2021/08/03 09:37:05;;;;;;;10.02;6.93;;;;;;;33.62;27.34;96722.75;5003361;28;20141;-60
2021/08/03 09:39:38;;;;;;;13.27;8.27;;;;;;;34.24;27.90;96803.66;5004342;28;20046;-68
2021/08/03 09:42:16;;;;;;;11.05;7.60;;;;;;;34.56;26.79;96798.97;5004819;28;20057;-59
2021/08/03 09:45:00;;;;;;;12.85;8.00;;;;;;;34.98;26.94;96801.22;4997119;28;20061;-66
2021/08/03 09:47:32;;;;;;;11.90;7.05;;;;;;;33.88;26.65;96577.81;4988307;28;20524;-61
2021/08/03 09:50:06;;;;;;;8.65;6.50;;;;;;;34.96;26.03;96803.84;4987363;28;20053;-61
2021/08/03 09:52:35;;;;;;;;;;;;;;;34.21;26.53;96784.59;4978518;28;20054;-65
2021/08/03 09:55:15;;;;;;;13.70;7.28;;;;;;;34.78;26.66;96798.75;4972086;28;19925;-67
2021/08/03 09:57:43;;;;;;;11.93;7.35;;;;;;;35.02;25.82;96761.38;4980695;28;20134;-62
2021/08/03 10:00:45;;;;;;;8.43;7.22;;;;;;;35.19;26.05;96787.88;4983844;28;20065;-64
2021/08/03 10:03:12;;;;;;;13.02;9.75;;;;;;;34.51;25.76;96728.63;4956168;28;20069;-69
2021/08/03 10:05:40;;;;;;;9.70;8.35;;;;;;;35.56;25.45;96787.97;4982253;28;20141;-69
2021/08/03 10:08:07;;;;;;;13.35;8.05;;;;;;;34.98;25.35;96712.69;4976101;28;20505;-68
2021/08/03 10:10:33;;;;;;;14.02;8.27;;;;;;;35.59;25.20;96792.66;4982212;28;20068;-68
2021/08/03 10:13:00;;;;;;;13.70;7.97;;;;;;;35.16;25.44;96788.94;4970642;28;20525;-66
2021/08/03 10:15:27;;;;;;;9.98;7.72;;;;;;;34.89;25.86;96706.53;4979188;28;20061;-66
2021/08/03 10:17:54;;;;;;;10.05;6.32;;;;;;;35.80;25.47;96779.25;4970068;28;20066;-71
2021/08/03 10:20:21;;;;;;;11.40;6.90;;;;;;;36.06;25.03;96770.75;4976961;28;20134;-60
2021/08/03 10:23:06;;;;;;;10.20;6.97;;;;;;;36.53;24.86;96787.63;4985943;28;20050;-62
2021/08/03 10:25:38;;;;;;;14.60;8.43;;;;;;;36.12;24.26;96748.38;4984478;28;20061;-68
2021/08/03 10:28:19;;;;;;;11.80;6.75;;;;;;;36.72;24.13;96771.00;4984896;28;20412;-67
2021/08/03 10:30:46;;;;;;;8.80;6.28;;;;;;;35.89;24.39;96659.88;4983226;28;20054;-62
2021/08/03 10:33:38;;;;;;;9.05;6.10;;;;;;;35.68;24.19;96777.84;4983330;28;20050;-61
2021/08/03 10:36:04;;;;;;;9.25;6.20;;;;;;;35.24;24.70;96735.16;4984204;28;20069;-68
2021/08/03 10:38:32;;;;;;;8.13;5.40;;;;;;;35.65;24.42;96770.28;4984655;28;20056;-69
2021/08/03 10:41:03;;;;;;;11.38;7.38;;;;;;;35.42;24.82;96731.56;4981981;28;20054;-71
2021/08/03 10:43:33;;;;;;;10.43;6.68;;;;;;;36.01;24.98;96760.09;4982858;28;20053;-67
2021/08/03 10:46:08;;;;;;;12.23;8.88;;;;;;;36.16;24.59;96763.28;4983835;28;20054;-66
2021/08/03 10:48:43;;;;;;;7.13;5.63;;;;;;;35.45;24.27;96765.06;4972825;28;20140;-68
2021/08/03 10:51:13;;;;;;;9.25;6.97;;;;;;;35.28;24.68;96761.59;4966295;28;20590;-58
2021/08/03 10:54:16;;;;;;;9.23;6.55;;;;;;;35.83;25.61;96749.34;4980653;28;20053;-69
2021/08/03 10:56:54;;;;;;;9.95;6.70;;;;;;;35.51;24.53;96713.88;4983665;28;20145;-60
2021/08/03 10:59:35;;;;;;;9.00;6.40;;;;;;;35.95;24.59;96719.00;4982943;28;20046;-62
2021/08/03 11:02:07;;;;;;;7.53;6.00;;;;;;;35.95;24.50;96756.50;4983023;28;20086;-68
2021/08/03 11:04:41;;;;;;;6.77;6.10;;;;;;;35.20;25.20;96759.84;4977651;28;20292;-68
2021/08/03 11:07:26;;;;;;;12.48;6.90;;;;;;;36.02;25.61;96752.22;4984245;28;20050;-67
2021/08/03 11:10:22;;;;;;;11.00;6.78;;;;;;;36.24;25.19;96764.19;4979083;28;20143;-68
2021/08/03 11:12:51;;;;;;;12.55;7.03;;;;;;;36.26;25.41;96757.88;4975958;28;20078;-70
2021/08/03 11:15:21;;;;;;;9.65;6.63;;;;;;;35.86;25.79;96762.69;4982563;28;20129;-64
2021/08/03 11:18:07;;;;;;;10.18;6.60;;;;;;;36.13;25.25;96726.88;4986541;28;20062;-60
2021/08/03 11:20:33;;;;;;;9.85;6.38;;;;;;;36.40;25.20;96760.28;4990297;28;20061;-60
2021/08/03 11:23:18;;;;;;;8.93;5.95;;;;;;;36.77;24.83;96755.72;4988954;28;20498;-67
2021/08/03 11:25:47;;;;;;;9.27;6.15;;;;;;;36.86;25.10;96746.63;4994174;28;20068;-65
2021/08/03 11:28:19;;;;;;;8.57;6.20;;;;;;;37.06;24.60;96751.75;4993247;28;20608;-65
2021/08/03 11:30:50;;;;;;;10.17;6.10;;;;;;;36.72;24.59;96747.91;4992199;28;20176;-66
2021/08/03 11:33:20;;;;;;;10.50;6.40;;;;;;;36.41;24.86;96711.97;4998633;28;20837;-66
2021/08/03 11:35:48;;;;;;;7.50;6.13;;;;;;;36.35;25.43;96755.38;5002321;28;20509;-60
2021/08/03 11:38:17;;;;;;;10.73;6.63;;;;;;;36.41;25.26;96746.59;4986429;28;20076;-59